Home > Products > Valid Products > MTR

000
SAUS45 KRIW 022357
MTRP60
METAR KP60 022356Z AUTO 00000KT M03/M13 A2963 RMK AO1 SLP112
T10281128 11022 21106 56010





000
SAUS45 KRIW 022257
MTRP60
METAR KP60 022256Z AUTO 00000KT M02/M17 A2964 RMK AO1 SLP108
T10221167





000
SAUS45 KRIW 022257
MTRP60
METAR KP60 022256Z AUTO 00000KT M02/M17 A2964 RMK AO1 SLP108
T10221167





000
SAUS45 KRIW 022157
MTRP60
METAR KP60 022156Z AUTO 07004KT M02/M16 A2965 RMK AO1 SLP107
T10221161





000
SAUS45 KRIW 022157
MTRP60
METAR KP60 022156Z AUTO 07004KT M02/M16 A2965 RMK AO1 SLP107
T10221161





000
SAUS45 KRIW 022057
MTRP60
METAR KP60 022056Z AUTO VRB03KT M03/M11 A2967 RMK AO1 SLP118
T10281106 58029





000
SAUS45 KRIW 022057
MTRP60
METAR KP60 022056Z AUTO VRB03KT M03/M11 A2967 RMK AO1 SLP118
T10281106 58029





000
SAUS45 KRIW 021957
MTRP60
METAR KP60 021956Z AUTO 07005KT M04/M12 A2972 RMK AO1 SLP138
T10441117





000
SAUS45 KRIW 021957
MTRP60
METAR KP60 021956Z AUTO 07005KT M04/M12 A2972 RMK AO1 SLP138
T10441117





000
SAUS45 KRIW 021857
MTRP60
METAR KP60 021856Z AUTO VRB04KT M05/M13 A2976 RMK AO1 SLP155
T10501128





000
SAUS45 KRIW 021857
MTRP60
METAR KP60 021856Z AUTO VRB04KT M05/M13 A2976 RMK AO1 SLP155
T10501128





000
SAUS45 KRIW 021757
MTRP60
METAR KP60 021756Z AUTO 00000KT M11/M17 A2978 RMK AO1 PRESFR SLP183
T11061172 11106 21250 58015





000
SAUS45 KRIW 021757
MTRP60
METAR KP60 021756Z AUTO 00000KT M11/M17 A2978 RMK AO1 PRESFR SLP183
T11061172 11106 21250 58015





000
SAUS45 KRIW 021657
MTRP60
METAR KP60 021656Z AUTO 11003KT M17/M22 A2982 RMK AO1 PRESFR SLP215
T11671217





000
SAUS45 KRIW 021557
MTRP60
METAR KP60 021556Z AUTO 00000KT M16/M19 A2982 RMK AO1 SLP208
T11561194





000
SAUS45 KRIW 021457
MTRP60
METAR KP60 021456Z AUTO 00000KT M21/M24 A2983 RMK AO1 SLP232
T12111239 56016





000
SAUS45 KRIW 021357
MTRP60
METAR KP60 021356Z AUTO 00000KT M24/M27 A2984 RMK AO1 SLP236
T12441272





000
SAUS45 KRIW 021357
MTRP60
METAR KP60 021356Z AUTO 00000KT M24/M27 A2984 RMK AO1 SLP236
T12441272





000
SAUS45 KRIW 021257
MTRP60
METAR KP60 021256Z AUTO 00000KT M24/M27 A2987 RMK AO1 SLP232
T12441272





000
SAUS45 KRIW 021157
MTRP60
METAR KP60 021156Z AUTO 00000KT M24/M27 A2989 RMK AO1 SLP220
T12391267 11200 21239 56015





000
SAUS45 KRIW 021057
MTRP60
METAR KP60 021056Z AUTO 32003KT M23/M26 A2990 RMK AO1 SLP218
T12281256





000
SAUS45 KRIW 020957
MTRP60
METAR KP60 020956Z AUTO 00000KT M22/M24 A2992 RMK AO1 SLP226
T12171239





000
SAUS45 KRIW 020957
MTRP60
METAR KP60 020956Z AUTO 00000KT M22/M24 A2992 RMK AO1 SLP226
T12171239





000
SAUS45 KRIW 020857
MTRP60
METAR KP60 020856Z AUTO 00000KT M22/M24 A2995 RMK AO1 SLP244
T12171239 56013





000
SAUS45 KRIW 020857
MTRP60
METAR KP60 020856Z AUTO 00000KT M22/M24 A2995 RMK AO1 SLP244
T12171239 56013





000
SAUS45 KRIW 020757
MTRP60
METAR KP60 020756Z AUTO 31003KT M21/M23 A2996 RMK AO1 SLP254
T12061233





000
SAUS45 KRIW 020657
MTRP60
METAR KP60 020656Z AUTO 31003KT M21/M23 A2997 RMK AO1 SLP265
T12061233 410611289





000
SAUS45 KRIW 020657
MTRP60
METAR KP60 020656Z AUTO 31003KT M21/M23 A2997 RMK AO1 SLP265
T12061233 410611289





000
SAUS45 KRIW 020557
MTRP60
METAR KP60 020556Z AUTO 30003KT M21/M23 A2999 RMK AO1 SLP287
T12111233 11067 21211 58000





000
SAUS45 KRIW 020557
MTRP60
METAR KP60 020556Z AUTO 30003KT M21/M23 A2999 RMK AO1 SLP287
T12111233 11067 21211 58000





000
SAUS45 KRIW 020457
MTRP60
METAR KP60 020456Z AUTO 32003KT M19/M23 A3000 RMK AO1 SLP293
T11941228





000
SAUS45 KRIW 020357
MTRP60
METAR KP60 020356Z AUTO 00000KT M18/M22 A3000 RMK AO1 SLP293
T11831222





000
SAUS45 KRIW 020257
MTRP60
METAR KP60 020256Z AUTO 00000KT M18/M22 A3000 RMK AO1 SLP309
T11781222 56004





000
SAUS45 KRIW 020157
MTRP60
METAR KP60 020156Z AUTO 31004KT M15/M21 A3000 RMK AO1 SLP310
T11501211





000
SAUS45 KRIW 020157
MTRP60
METAR KP60 020156Z AUTO 31004KT M15/M21 A3000 RMK AO1 SLP310
T11501211





000
SAUS45 KRIW 020057
MTRP60
METAR KP60 020056Z AUTO 00000KT M11/M20 A3000 RMK AO1 SLP292
T11111200





000
SAUS45 KRIW 020057
MTRP60
METAR KP60 020056Z AUTO 00000KT M11/M20 A3000 RMK AO1 SLP292
T11111200





000
SAUS45 KRIW 012357
MTRP60
METAR KP60 012356Z AUTO 00000KT M07/M22 A3001 RMK AO1 SLP276
T10671217 11061 21178 57016





000
SAUS45 KRIW 012357
MTRP60
METAR KP60 012356Z AUTO 00000KT M07/M22 A3001 RMK AO1 SLP276
T10671217 11061 21178 57016





000
SAUS45 KRIW 012257
MTRP60
METAR KP60 012256Z AUTO 00000KT M07/M21 A3003 RMK AO1 SLP279
T10671206





000
SAUS45 KRIW 012257
MTRP60
METAR KP60 012256Z AUTO 00000KT M07/M21 A3003 RMK AO1 SLP279
T10671206





000
SAUS45 KRIW 012157
MTRP60
METAR KP60 012156Z AUTO 00000KT M07/M21 A3005 RMK AO1 SLP281
T10721211





000
SAUS45 KRIW 012157
MTRP60
METAR KP60 012156Z AUTO 00000KT M07/M21 A3005 RMK AO1 SLP281
T10721211





000
SAUS45 KRIW 012057
MTRP60
METAR KP60 012056Z AUTO 08003KT M09/M20 A3007 RMK AO1 SLP297
T10941200 58012





000
SAUS45 KRIW 012057
MTRP60
METAR KP60 012056Z AUTO 08003KT M09/M20 A3007 RMK AO1 SLP297
T10941200 58012





000
SAUS45 KRIW 011957
MTRP60
METAR KP60 011956Z AUTO 11003KT M12/M21 A3009 RMK AO1 SLP309
T11171206





000
SAUS45 KRIW 011857
MTRP60
METAR KP60 011856Z AUTO 10004KT M14/M20 A3011 RMK AO1 SLP316
T11391200





000
SAUS45 KRIW 011857
MTRP60
METAR KP60 011856Z AUTO 10004KT M14/M20 A3011 RMK AO1 SLP316
T11391200





000
SAUS45 KRIW 011757
MTRP60
METAR KP60 011756Z AUTO 00000KT M17/M21 A3011 RMK AO1 SLP321
T11721211 11172 21289 58002





000
SAUS45 KRIW 011757
MTRP60
METAR KP60 011756Z AUTO 00000KT M17/M21 A3011 RMK AO1 SLP321
T11721211 11172 21289 58002





000
SAUS45 KRIW 011657
MTRP60
METAR KP60 011656Z AUTO 13003KT M19/M22 A3013 RMK AO1 SLP331
T11941222





000
SAUS45 KRIW 011557
MTRP60
METAR KP60 011556Z AUTO 14003KT M21/M22 A3013 RMK AO1 SLP321
T12061222





000
SAUS45 KRIW 011457
MTRP60
METAR KP60 011456Z AUTO 35003KT M26/M29 A3012 RMK AO1 SLP329
T12561289 51010





000
SAUS45 KRIW 011457
MTRP60
METAR KP60 011456Z AUTO 35003KT M26/M29 A3012 RMK AO1 SLP329
T12561289 51010





000
SAUS45 KRIW 011357
MTRP60
METAR KP60 011356Z AUTO 00000KT M28/M31 A3011 RMK AO1 SLP327
T12831311





000
SAUS45 KRIW 011357
MTRP60
METAR KP60 011356Z AUTO 00000KT M28/M31 A3011 RMK AO1 SLP327
T12831311





000
SAUS45 KRIW 011257
MTRP60
METAR KP60 011256Z AUTO 00000KT M28/M32 A3010 RMK AO1 SLP317
T12831317





000
SAUS45 KRIW 011257
MTRP60
METAR KP60 011256Z AUTO 00000KT M28/M32 A3010 RMK AO1 SLP317
T12831317





000
SAUS45 KRIW 011157
MTRP60
METAR KP60 011156Z AUTO 00000KT M27/M30 A3008 RMK AO1 SLP297
T12721300 11178 21272 53012





000
SAUS45 KRIW 011057
MTRP60
METAR KP60 011056Z AUTO 00000KT M26/M29 A3006 RMK AO1 SLP288
T12611289





000
SAUS45 KRIW 010957
MTRP60
METAR KP60 010956Z AUTO 00000KT M24/M27 A3006 RMK AO1 SLP279
T12441272





000
SAUS45 KRIW 010957
MTRP60
METAR KP60 010956Z AUTO 00000KT M24/M27 A3006 RMK AO1 SLP279
T12441272





000
SAUS45 KRIW 010857
MTRP60
METAR KP60 010856Z AUTO 31003KT M24/M27 A3004 RMK AO1 SLP273
T12391272 53019





000
SAUS45 KRIW 010857
MTRP60
METAR KP60 010856Z AUTO 31003KT M24/M27 A3004 RMK AO1 SLP273
T12391272 53019





000
SAUS45 KRIW 010757
MTRP60
METAR KP60 010756Z AUTO 00000KT M23/M25 A3001 RMK AO1 SLP263
T12281250





000
SAUS45 KRIW 010657
MTRP60
METAR KP60 010656Z AUTO 00000KT M21/M23 A2999 RMK AO1 SLP256
T12111233 410501261





000
SAUS45 KRIW 010657
MTRP60
METAR KP60 010656Z AUTO 00000KT M21/M23 A2999 RMK AO1 SLP256
T12111233 410501261





000
SAUS45 KRIW 010557
MTRP60
METAR KP60 010556Z AUTO 31006KT M18/M21 A2997 RMK AO1 SLP248
T11831206 11050 21194 51019





000
SAUS45 KRIW 010557
MTRP60
METAR KP60 010556Z AUTO 31006KT M18/M21 A2997 RMK AO1 SLP248
T11831206 11050 21194 51019





000
SAUS45 KRIW 010457
MTRP60
METAR KP60 010456Z AUTO VRB04KT M17/M20 A2996 RMK AO1 SLP252
T11721200





000
SAUS45 KRIW 010457
MTRP60
METAR KP60 010456Z AUTO VRB04KT M17/M20 A2996 RMK AO1 SLP252
T11721200





000
SAUS45 KRIW 010357
MTRP60
METAR KP60 010356Z AUTO 05003KT M14/M18 A2992 RMK AO1 SLP245
T11441183





000
SAUS45 KRIW 010257
MTRP60
METAR KP60 010256Z AUTO 00000KT M11/M17 A2990 RMK AO1 SLP235
T11111167 53023





000
SAUS45 KRIW 010257
MTRP60
METAR KP60 010256Z AUTO 00000KT M11/M17 A2990 RMK AO1 SLP235
T11111167 53023





000
SAUS45 KRIW 010157
MTRP60
METAR KP60 010156Z AUTO VRB03KT M09/M17 A2986 RMK AO1 SLP225
T10941167





000
SAUS45 KRIW 010057
MTRP60
METAR KP60 010056Z AUTO VRB04KT M07/M17 A2983 RMK AO1 SLP206
T10721172





000
SAUS45 KRIW 010057
MTRP60
METAR KP60 010056Z AUTO VRB04KT M07/M17 A2983 RMK AO1 SLP206
T10721172





000
SAUS45 KRIW 282357
MTRP60
METAR KP60 282356Z AUTO 00000KT M05/M17 A2981 RMK AO1 SLP188
T10501167 11050 21117 53008





000
SAUS45 KRIW 282357
MTRP60
METAR KP60 282356Z AUTO 00000KT M05/M17 A2981 RMK AO1 SLP188
T10501167 11050 21117 53008





000
SAUS45 KRIW 282257
MTRP60
METAR KP60 282256Z AUTO 09004KT M06/M14 A2980 RMK AO1 SLP185
T10611144





000
SAUS45 KRIW 282257
MTRP60
METAR KP60 282256Z AUTO 09004KT M06/M14 A2980 RMK AO1 SLP185
T10611144





000
SAUS45 KRIW 282157
MTRP60
METAR KP60 282156Z AUTO 11004KT M06/M14 A2978 RMK AO1 SLP177
T10611144





000
SAUS45 KRIW 282057
MTRP60
METAR KP60 282056Z AUTO VRB04KT M07/M14 A2978 RMK AO1 SLP173
T10671144 58008





000
SAUS45 KRIW 282057
MTRP60
METAR KP60 282056Z AUTO VRB04KT M07/M14 A2978 RMK AO1 SLP173
T10671144 58008





000
SAUS45 KRIW 281957
MTRP60
METAR KP60 281956Z AUTO 11003KT M08/M16 A2980 RMK AO1 SLP182
T10781161





000
SAUS45 KRIW 281857
MTRP60
METAR KP60 281856Z AUTO 12003KT M09/M17 A2981 RMK AO1 SLP186
T10941172





000
SAUS45 KRIW 281857
MTRP60
METAR KP60 281856Z AUTO 12003KT M09/M17 A2981 RMK AO1 SLP186
T10941172





000
SAUS45 KRIW 281757
MTRP60
METAR KP60 281756Z AUTO 00000KT M12/M18 A2982 RMK AO1 SLP193
T11171178 11117 21261 51003





000
SAUS45 KRIW 281757
MTRP60
METAR KP60 281756Z AUTO 00000KT M12/M18 A2982 RMK AO1 SLP193
T11171178 11117 21261 51003





000
SAUS45 KRIW 281657
MTRP60
METAR KP60 281656Z AUTO 00000KT M16/M19 A2982 RMK AO1 SLP201
T11561189





000
SAUS45 KRIW 281657
MTRP60
METAR KP60 281656Z AUTO 00000KT M16/M19 A2982 RMK AO1 SLP201
T11561189





000
SAUS45 KRIW 281558
MTRP60
METAR KP60 281556Z AUTO 00000KT M19/M21 A2982 RMK AO1 SLP205
T11891211





000
SAUS45 KRIW 281457
MTRP60
METAR KP60 281456Z AUTO 00000KT M22/M24 A2980 RMK AO1 SLP209
T12221244 53007





000
SAUS45 KRIW 281357
MTRP60
METAR KP60 281356Z AUTO 00000KT M26/M28 A2979 RMK AO1 SLP208
T12561283





000
SAUS45 KRIW 281357
MTRP60
METAR KP60 281356Z AUTO 00000KT M26/M28 A2979 RMK AO1 SLP208
T12561283





000
SAUS45 KRIW 281257
MTRP60
METAR KP60 281256Z AUTO 00000KT M25/M28 A2978 RMK AO1 SLP190
T12501278





000
SAUS45 KRIW 281257
MTRP60
METAR KP60 281256Z AUTO 00000KT M25/M28 A2978 RMK AO1 SLP190
T12501278





000
SAUS45 KRIW 281157
MTRP60
METAR KP60 281156Z AUTO 29003KT M24/M28 A2978 RMK AO1 SLP183
T12441278 11189 21244 53002





000
SAUS45 KRIW 281157
MTRP60
METAR KP60 281156Z AUTO 29003KT M24/M28 A2978 RMK AO1 SLP183
T12441278 11189 21244 53002





000
SAUS45 KRIW 281057
MTRP60
METAR KP60 281056Z AUTO 00000KT M24/M27 A2977 RMK AO1 SLP175
T12391267





000
SAUS45 KRIW 281057
MTRP60
METAR KP60 281056Z AUTO 00000KT M24/M27 A2977 RMK AO1 SLP175
T12391267





000
SAUS45 KRIW 280957
MTRP60
METAR KP60 280956Z AUTO 00000KT M23/M26 A2977 RMK AO1 SLP176
T12281256





000
SAUS45 KRIW 280957
MTRP60
METAR KP60 280956Z AUTO 00000KT M23/M26 A2977 RMK AO1 SLP176
T12281256





000
SAUS45 KRIW 280857
MTRP60
METAR KP60 280856Z AUTO 31003KT M22/M24 A2977 RMK AO1 SLP176
T12171244 53001





000
SAUS45 KRIW 280757
MTRP60
METAR KP60 280756Z AUTO 00000KT M21/M24 A2977 RMK AO1 SLP175
T12111239





000
SAUS45 KRIW 280657
MTRP60
METAR KP60 280656Z AUTO 31003KT M20/M23 A2977 RMK AO1 SLP180
T12001228 410611250





000
SAUS45 KRIW 280657
MTRP60
METAR KP60 280656Z AUTO 31003KT M20/M23 A2977 RMK AO1 SLP180
T12001228 410611250





000
SAUS45 KRIW 280558
MTRP60
METAR KP60 280556Z AUTO 00000KT M19/M21 A2977 RMK AO1 SLP183
T11891211 11067 21189 51009





000
SAUS45 KRIW 280558
MTRP60
METAR KP60 280556Z AUTO 00000KT M19/M21 A2977 RMK AO1 SLP183
T11891211 11067 21189 51009





000
SAUS45 KRIW 280457
MTRP60
METAR KP60 280456Z AUTO 00000KT M17/M19 A2976 RMK AO1 SLP186
T11721194





000
SAUS45 KRIW 280457
MTRP60
METAR KP60 280456Z AUTO 00000KT M17/M19 A2976 RMK AO1 SLP186
T11721194





000
SAUS45 KRIW 280357
MTRP60
METAR KP60 280356Z AUTO 00000KT M14/M18 A2975 RMK AO1 SLP172
T11441178





000
SAUS45 KRIW 280357
MTRP60
METAR KP60 280356Z AUTO 00000KT M14/M18 A2975 RMK AO1 SLP172
T11441178





000
SAUS45 KRIW 280257
MTRP60
METAR KP60 280256Z AUTO 00000KT M13/M16 A2973 RMK AO1 SLP171
T11331161 51011





000
SAUS45 KRIW 280257
MTRP60
METAR KP60 280256Z AUTO 00000KT M13/M16 A2973 RMK AO1 SLP171
T11331161 51011





000
SAUS45 KRIW 280157
MTRP60
METAR KP60 280156Z AUTO 00000KT M11/M14 A2972 RMK AO1 SLP158
T11111139





000
SAUS45 KRIW 280157
MTRP60
METAR KP60 280156Z AUTO 00000KT M11/M14 A2972 RMK AO1 SLP158
T11111139





000
SAUS45 KRIW 280057
MTRP60
METAR KP60 280056Z AUTO 00000KT M08/M12 A2971 RMK AO1 SLP145
T10781122





000
SAUS45 KRIW 280057
MTRP60
METAR KP60 280056Z AUTO 00000KT M08/M12 A2971 RMK AO1 SLP145
T10781122





    US Dept of Commerce
    National Oceanic and Atmospheric Administration
    National Weather Service
    1325 East West Highway
    Silver Spring, MD 20910
    Page Author: NWS Internet Services Team
Disclaimer
Information Quality
Credits
Glossary
Privacy Policy
Freedom of Information Act (FOIA)
About Us
Career Opportunities